Time;durP1;ratioP1;P1;durP2;ratioP2;P2;SDS_P1;SDS_P2;PMS_P1;PMS_P2;Temp;Humidity;BMP_temperature;BMP_pressure;BME280_temperature;BME280_humidity;BME280_pressure;Samples;Min_cycle;Max_cycle;Signal;HPM_P1;HPM_P2
2021/09/01 00:00:15;;;;;;;5.43;4.93;;;;;;;17.96;60.03;99698.47;4898680;29;20280;-87
2021/09/01 00:02:42;;;;;;;4.97;4.57;;;;;;;17.91;60.29;99693.84;4883630;29;20301;-88
2021/09/01 00:05:10;;;;;;;5.30;4.80;;;;;;;17.95;60.54;99688.69;4883208;29;20227;-82
2021/09/01 00:07:37;;;;;;;5.80;4.70;;;;;;;17.87;60.05;99708.97;4886529;29;20229;-88
2021/09/01 00:10:05;;;;;;;5.20;4.80;;;;;;;17.87;60.28;99686.50;4901986;29;20235;-84
2021/09/01 00:12:32;;;;;;;5.23;4.63;;;;;;;17.77;60.88;99690.00;4902445;29;20324;-86
2021/09/01 00:14:59;;;;;;;5.50;5.00;;;;;;;17.80;61.34;99713.03;4887149;29;20242;-83
2021/09/01 00:17:26;;;;;;;5.57;5.10;;;;;;;17.79;61.72;99704.06;4871554;29;20658;-83
2021/09/01 00:19:52;;;;;;;5.93;5.00;;;;;;;17.94;61.12;99711.47;4902366;29;20238;-89
2021/09/01 00:22:19;;;;;;;7.40;5.13;;;;;;;17.80;61.68;99700.28;4886591;29;20313;-82
2021/09/01 00:24:46;;;;;;;5.20;4.70;;;;;;;17.63;62.33;99705.09;4902602;29;20237;-87
2021/09/01 00:27:13;;;;;;;5.53;5.03;;;;;;;17.68;62.49;99717.88;4886797;29;20631;-86
2021/09/01 00:29:40;;;;;;;5.60;5.10;;;;;;;17.56;62.50;99709.91;4887139;29;20587;-81
2021/09/01 00:32:07;;;;;;;5.53;5.03;;;;;;;17.60;62.51;99717.28;4886436;29;20319;-87
2021/09/01 00:34:33;;;;;;;5.47;4.90;;;;;;;17.47;62.43;99717.72;4902036;29;20315;-88
2021/09/01 00:37:00;;;;;;;5.30;4.80;;;;;;;17.45;62.92;99713.66;4901845;29;20262;-88
2021/09/01 00:39:27;;;;;;;5.37;4.87;;;;;;;17.45;62.55;99716.34;4886294;29;20314;-84
2021/09/01 00:41:54;;;;;;;5.53;5.03;;;;;;;17.41;62.78;99720.63;4886573;29;20595;-85
2021/09/01 00:44:23;;;;;;;5.37;4.87;;;;;;;17.30;62.84;99721.69;4901726;29;20294;-86
2021/09/01 00:46:50;;;;;;;5.17;4.73;;;;;;;17.19;63.23;99726.19;4901616;29;20277;-87
2021/09/01 00:49:17;;;;;;;5.30;4.90;;;;;;;17.09;61.90;99715.28;4917595;29;20257;-84
2021/09/01 00:51:48;;;;;;;5.70;5.20;;;;;;;16.93;62.00;99703.56;4917552;29;20289;-84
2021/09/01 00:54:20;;;;;;;5.50;5.00;;;;;;;17.08;61.65;99735.31;4917223;29;20284;-86
2021/09/01 00:56:53;;;;;;;5.77;5.13;;;;;;;17.00;62.05;99733.09;4901412;29;20290;-89
2021/09/01 00:59:24;;;;;;;6.33;5.27;;;;;;;17.14;61.84;99731.56;4885993;29;20230;-89
2021/09/01 01:01:51;;;;;;;7.33;4.90;;;;;;;16.89;62.40;99704.34;4901433;29;20322;-85
2021/09/01 01:04:19;;;;;;;6.30;4.97;;;;;;;16.92;62.02;99731.69;4885775;29;20233;-85
2021/09/01 01:06:45;;;;;;;4.83;4.40;;;;;;;16.99;61.81;99726.03;4902038;29;20233;-88
2021/09/01 01:09:13;;;;;;;5.50;4.77;;;;;;;17.13;61.33;99744.28;4901661;29;20312;-86
2021/09/01 01:11:58;;;;;;;5.40;4.90;;;;;;;17.10;61.53;99733.16;4917219;29;20313;-89
2021/09/01 01:14:26;;;;;;;5.80;4.90;;;;;;;17.04;61.39;99735.03;4916907;29;20238;-86
2021/09/01 01:16:53;;;;;;;5.63;4.57;;;;;;;17.06;61.46;99754.53;4901563;29;20320;-87
2021/09/01 01:19:20;;;;;;;5.30;4.60;;;;;;;16.97;61.46;99744.44;4870582;29;20599;-85
2021/09/01 01:21:47;;;;;;;4.83;4.43;;;;;;;16.93;60.03;99714.38;4916878;29;20231;-89
2021/09/01 01:24:14;;;;;;;5.10;4.60;;;;;;;16.97;60.62;99729.03;4901064;29;20333;-84
2021/09/01 01:26:41;;;;;;;6.17;4.67;;;;;;;16.95;61.35;99741.16;4885893;29;20547;-87
2021/09/01 01:29:09;;;;;;;4.60;4.20;;;;;;;16.91;60.87;99738.16;4901257;29;20274;-85
2021/09/01 01:31:37;;;;;;;6.00;4.70;;;;;;;16.94;60.64;99743.06;4897449;29;20279;-84
2021/09/01 01:34:11;;;;;;;5.23;4.73;;;;;;;16.85;60.98;99727.53;4885077;29;20269;-90
2021/09/01 01:36:38;;;;;;;5.27;4.60;;;;;;;16.77;61.19;99726.13;4901202;29;20238;-86
2021/09/01 01:39:05;;;;;;;5.27;4.50;;;;;;;16.80;60.97;99741.84;4901056;29;20683;-88
2021/09/01 01:41:32;;;;;;;5.33;4.70;;;;;;;16.82;60.70;99753.25;4885238;29;20672;-85
2021/09/01 01:43:59;;;;;;;5.40;4.90;;;;;;;16.80;60.63;99749.97;4916680;29;20713;-85
2021/09/01 01:46:26;;;;;;;6.03;4.50;;;;;;;16.79;59.67;99728.59;4885167;29;20242;-85
2021/09/01 01:48:53;;;;;;;5.10;4.60;;;;;;;16.79;59.72;99740.25;4885359;29;20608;-87
2021/09/01 01:51:20;;;;;;;5.03;4.50;;;;;;;16.66;60.64;99741.47;4900942;29;20255;-87
2021/09/01 01:53:47;;;;;;;5.93;5.30;;;;;;;16.68;61.28;99735.81;4901836;29;20289;-86
2021/09/01 01:56:14;;;;;;;5.53;4.83;;;;;;;16.76;61.74;99754.25;4900149;29;20249;-88
2021/09/01 01:58:41;;;;;;;5.97;4.67;;;;;;;16.71;61.91;99756.91;4900719;29;20627;-81
2021/09/01 02:01:07;;;;;;;5.83;4.97;;;;;;;16.65;62.24;99752.56;4901614;29;20628;-82
2021/09/01 02:03:34;;;;;;;6.00;4.80;;;;;;;16.72;61.98;99758.56;4900476;29;20237;-85
2021/09/01 02:06:01;;;;;;;5.50;5.00;;;;;;;16.59;62.29;99750.88;4900056;29;20259;-85
2021/09/01 02:08:28;;;;;;;7.03;4.93;;;;;;;16.51;62.52;99757.53;4900844;29;20579;-84
2021/09/01 02:10:54;;;;;;;5.17;4.67;;;;;;;16.48;62.48;99746.38;4900212;29;20258;-85
2021/09/01 02:13:21;;;;;;;5.27;4.77;;;;;;;16.48;62.06;99747.19;4900507;29;20262;-90
2021/09/01 02:15:48;;;;;;;4.93;4.53;;;;;;;16.46;62.02;99751.25;4900536;29;20234;-84
2021/09/01 02:18:15;;;;;;;5.50;4.60;;;;;;;16.43;61.90;99766.06;4899906;29;20241;-86
2021/09/01 02:20:42;;;;;;;6.37;5.20;;;;;;;16.34;62.37;99758.66;4900305;29;20233;-82
2021/09/01 02:23:09;;;;;;;5.40;4.50;;;;;;;16.43;62.67;99770.66;4900437;29;20235;-88
2021/09/01 02:25:35;;;;;;;5.57;5.10;;;;;;;16.36;62.36;99772.75;4900030;29;20237;-82
2021/09/01 02:28:02;;;;;;;5.23;4.73;;;;;;;16.32;62.18;99768.94;4899758;29;20266;-87
2021/09/01 02:30:30;;;;;;;6.93;5.17;;;;;;;16.27;62.52;99769.69;4918481;29;20634;-84
2021/09/01 02:32:57;;;;;;;6.90;5.00;;;;;;;16.30;62.65;99775.41;4903095;29;20276;-84
2021/09/01 02:35:23;;;;;;;5.30;4.80;;;;;;;16.28;62.87;99774.84;4918815;29;20260;-82
2021/09/01 02:37:52;;;;;;;5.37;4.87;;;;;;;16.32;62.89;99782.47;4919125;29;20293;-81
2021/09/01 02:40:20;;;;;;;5.37;4.87;;;;;;;16.32;62.49;99787.88;4918791;29;20240;-81
2021/09/01 02:42:47;;;;;;;5.10;4.63;;;;;;;16.31;63.22;99797.84;4918769;29;20315;-87
2021/09/01 02:45:16;;;;;;;5.80;5.27;;;;;;;16.25;62.94;99791.56;4918699;29;20300;-83
2021/09/01 02:47:45;;;;;;;5.77;5.27;;;;;;;16.21;63.60;99792.31;4918742;29;20246;-83
2021/09/01 02:50:13;;;;;;;6.10;5.50;;;;;;;16.31;63.23;99787.03;4934049;29;20327;-86
2021/09/01 02:52:41;;;;;;;5.80;5.20;;;;;;;16.33;62.91;99794.91;4918737;29;20260;-87
2021/09/01 02:55:08;;;;;;;6.10;5.60;;;;;;;16.35;62.87;99796.28;4934460;29;20241;-86
2021/09/01 02:57:35;;;;;;;6.03;5.33;;;;;;;16.22;63.63;99786.69;4902677;29;20253;-88
2021/09/01 03:00:04;;;;;;;5.47;4.97;;;;;;;16.25;63.35;99786.16;4917961;29;20265;-82
2021/09/01 03:02:38;;;;;;;6.10;5.50;;;;;;;16.13;63.49;99785.50;4918548;29;20239;-86
2021/09/01 03:05:06;;;;;;;6.97;5.17;;;;;;;16.25;63.01;99796.97;4933768;29;20239;-86
2021/09/01 03:07:32;;;;;;;5.53;5.03;;;;;;;16.29;62.65;99783.75;4934019;29;20262;-83
2021/09/01 03:09:59;;;;;;;5.97;5.03;;;;;;;16.07;62.56;99791.88;4934120;29;20618;-82
2021/09/01 03:12:26;;;;;;;5.33;4.80;;;;;;;16.21;62.14;99782.34;4934177;29;20638;-83
2021/09/01 03:14:54;;;;;;;6.90;4.80;;;;;;;16.30;61.57;99782.69;4907730;29;20308;-84
2021/09/01 03:17:22;;;;;;;5.40;4.90;;;;;;;16.25;61.69;99780.75;4941527;29;20232;-82
2021/09/01 03:19:55;;;;;;;6.00;4.70;;;;;;;16.24;61.22;99771.00;4936878;29;20216;-81
2021/09/01 03:22:22;;;;;;;5.67;4.60;;;;;;;16.34;60.88;99781.13;4944229;29;20613;-81
2021/09/01 03:24:49;;;;;;;5.20;4.70;;;;;;;16.44;60.62;99783.13;4929860;29;20258;-81
2021/09/01 03:27:16;;;;;;;5.50;4.87;;;;;;;16.27;60.82;99778.63;4929600;29;20239;-81
2021/09/01 03:29:48;;;;;;;5.67;4.87;;;;;;;16.46;60.67;99794.50;4942512;29;20234;-81
2021/09/01 03:32:18;;;;;;;5.00;4.50;;;;;;;16.45;60.64;99780.16;4932619;23;20259;-81
2021/09/01 03:34:44;;;;;;;6.17;4.70;;;;;;;16.31;60.66;99776.22;4922875;29;20226;-81
2021/09/01 03:37:11;;;;;;;4.97;4.53;;;;;;;16.28;60.73;99782.16;4925295;29;20227;-82
2021/09/01 03:39:39;;;;;;;5.67;4.80;;;;;;;16.25;61.10;99780.75;4907853;29;20232;-81
2021/09/01 03:42:06;;;;;;;5.23;4.73;;;;;;;16.27;60.91;99791.31;4928913;29;20286;-82
2021/09/01 03:44:34;;;;;;;6.53;4.80;;;;;;;16.10;61.76;99787.84;4908898;29;20238;-83
2021/09/01 03:47:01;;;;;;;5.37;4.43;;;;;;;16.13;61.50;99799.00;4884161;29;20237;-81
2021/09/01 03:49:30;;;;;;;6.23;4.60;;;;;;;16.06;61.69;99794.84;4893553;29;20223;-83
2021/09/01 03:51:57;;;;;;;5.27;4.73;;;;;;;16.15;61.01;99791.44;4928373;29;20248;-81
2021/09/01 03:54:34;;;;;;;5.40;4.77;;;;;;;15.92;61.42;99774.66;4946163;23;20244;-81
2021/09/01 03:57:03;;;;;;;5.63;5.03;;;;;;;16.00;61.51;99804.78;4907906;23;20223;-81
2021/09/01 03:59:40;;;;;;;5.23;4.67;;;;;;;16.04;61.42;99789.69;4912038;29;20232;-80
2021/09/01 04:02:09;;;;;;;7.47;5.53;;;;;;;16.07;61.88;99810.81;4910386;29;20290;-81
2021/09/01 04:04:36;;;;;;;4.90;4.40;;;;;;;15.99;62.19;99813.13;4922146;29;20584;-83
2021/09/01 04:07:04;;;;;;;5.60;5.10;;;;;;;15.98;62.03;99819.59;4901955;29;20240;-81
2021/09/01 04:09:33;;;;;;;5.53;5.00;;;;;;;16.02;62.22;99832.34;4908996;29;20233;-81
2021/09/01 04:12:14;;;;;;;6.10;5.43;;;;;;;16.04;61.79;99824.00;4911696;29;20673;-82
2021/09/01 04:14:47;;;;;;;5.17;4.60;;;;;;;15.99;62.05;99815.84;4896368;29;20320;-81
2021/09/01 04:17:30;;;;;;;5.70;5.10;;;;;;;15.99;61.95;99821.25;4914137;29;20255;-80
2021/09/01 04:20:16;;;;;;;6.37;5.43;;;;;;;16.05;61.82;99831.06;4914333;29;20172;-80
2021/09/01 04:22:46;;;;;;;6.03;5.13;;;;;;;16.07;61.71;99835.13;4941752;23;20266;-80
2021/09/01 04:25:34;;;;;;;7.17;5.80;;;;;;;16.04;61.98;99835.66;4951975;29;20227;-80
2021/09/01 04:28:07;;;;;;;5.93;5.03;;;;;;;16.12;61.90;99829.78;4953256;29;20203;-80
2021/09/01 04:30:39;;;;;;;8.30;4.93;;;;;;;16.15;62.13;99839.28;4952428;29;20230;-80
2021/09/01 04:33:17;;;;;;;5.70;5.10;;;;;;;16.18;62.00;99844.19;4958950;23;20275;-81
2021/09/01 04:35:51;;;;;;;5.83;5.33;;;;;;;15.97;62.76;99834.16;4917223;29;20228;-81
2021/09/01 04:38:20;;;;;;;6.20;5.60;;;;;;;16.24;62.17;99844.00;4915890;29;20322;-81
2021/09/01 04:40:49;;;;;;;6.20;5.60;;;;;;;16.27;61.82;99842.69;4946558;23;20232;-81
2021/09/01 04:43:33;;;;;;;5.60;4.97;;;;;;;16.05;61.65;99831.06;4926443;29;20291;-80
2021/09/01 04:46:15;;;;;;;7.70;5.30;;;;;;;16.29;61.34;99832.44;4931934;29;20289;-80
2021/09/01 04:48:44;;;;;;;6.53;5.30;;;;;;;16.37;61.33;99845.53;4917341;23;20248;-81
2021/09/01 04:51:31;;;;;;;5.97;4.93;;;;;;;16.50;60.88;99857.84;4911375;29;20237;-81
2021/09/01 04:53:58;;;;;;;6.10;5.27;;;;;;;16.46;60.77;99859.41;4917421;29;20260;-81
2021/09/01 04:56:34;;;;;;;5.80;5.23;;;;;;;16.56;60.37;99844.09;4916418;29;20671;-81
2021/09/01 04:59:14;;;;;;;5.90;5.27;;;;;;;16.70;60.11;99858.91;4916639;29;20269;-81
2021/09/01 05:01:44;;;;;;;6.57;5.30;;;;;;;16.49;60.49;99845.38;4916716;29;20271;-81
2021/09/01 05:04:25;;;;;;;5.90;5.30;;;;;;;16.72;59.89;99859.47;4921478;29;20302;-80
2021/09/01 05:07:00;;;;;;;6.33;5.73;;;;;;;16.60;60.07;99855.28;4916232;29;20270;-80
2021/09/01 05:09:31;;;;;;;7.53;5.20;;;;;;;16.73;59.40;99869.22;4900509;29;20239;-81
2021/09/01 05:12:05;;;;;;;5.43;4.90;;;;;;;16.89;59.07;99856.66;4895923;29;20241;-80
2021/09/01 05:14:41;;;;;;;5.87;5.27;;;;;;;16.78;59.16;99860.34;4907765;29;20600;-81
2021/09/01 05:17:13;;;;;;;6.23;5.10;;;;;;;16.81;58.94;99876.06;4890165;29;20310;-80
2021/09/01 05:20:26;;;;;;;6.30;5.70;;;;;;;16.97;58.47;99874.34;5006222;23;20251;-80
2021/09/01 05:23:32;;;;;;;5.90;5.30;;;;;;;16.80;58.71;99857.41;4938683;23;20254;-80
2021/09/01 05:26:14;;;;;;;6.47;5.57;;;;;;;16.76;58.80;99861.66;4914456;29;20196;-80
2021/09/01 05:29:05;;;;;;;6.57;5.27;;;;;;;16.68;59.07;99868.34;4914670;29;20231;-80
2021/09/01 05:31:46;;;;;;;5.97;5.47;;;;;;;16.71;58.73;99848.91;4911029;29;20667;-80
2021/09/01 05:34:22;;;;;;;5.97;5.03;;;;;;;16.86;58.20;99857.19;4940491;23;20264;-80
2021/09/01 05:36:52;;;;;;;6.73;5.40;;;;;;;16.95;58.29;99834.00;4934008;29;20234;-80
2021/09/01 05:39:47;;;;;;;5.80;5.17;;;;;;;17.12;57.17;99847.44;4934562;29;20247;-79
2021/09/01 05:42:20;;;;;;;7.07;5.00;;;;;;;17.24;57.10;99863.50;4966165;23;20278;-80
2021/09/01 05:45:10;;;;;;;5.33;4.83;;;;;;;17.47;56.20;99877.53;4938282;23;20304;-80
2021/09/01 05:47:50;;;;;;;8.07;5.10;;;;;;;17.67;55.62;99857.94;4916195;29;20774;-80
2021/09/01 05:50:25;;;;;;;5.40;4.83;;;;;;;17.78;55.57;99872.34;4906840;29;20252;-87
2021/09/01 05:52:52;;;;;;;5.70;5.07;;;;;;;17.98;54.96;99877.91;4911010;29;20228;-81
2021/09/01 05:55:19;;;;;;;6.27;5.00;;;;;;;18.09;54.37;99866.06;4904844;29;20265;-84
2021/09/01 05:57:49;;;;;;;5.97;5.23;;;;;;;18.04;54.85;99876.88;4897277;29;20226;-81
2021/09/01 06:00:16;;;;;;;6.27;5.43;;;;;;;18.36;54.20;99876.75;4892116;29;20290;-86
2021/09/01 06:02:51;;;;;;;5.43;4.93;;;;;;;18.33;54.41;99896.28;4892354;29;20544;-85
2021/09/01 06:05:20;;;;;;;5.73;4.83;;;;;;;18.14;54.56;99882.34;4885239;29;20230;-82
2021/09/01 06:07:57;;;;;;;5.73;5.10;;;;;;;18.15;54.30;99878.53;4901022;29;20232;-88
2021/09/01 06:10:29;;;;;;;6.63;5.07;;;;;;;18.11;54.34;99885.56;4885151;29;20623;-86
2021/09/01 06:12:58;;;;;;;6.67;4.93;;;;;;;18.17;54.76;99872.88;4885045;29;20234;-88
2021/09/01 06:15:25;;;;;;;5.93;5.33;;;;;;;17.88;55.72;99894.09;4885458;29;20351;-84
2021/09/01 06:17:52;;;;;;;6.83;5.57;;;;;;;18.02;55.21;99870.88;4900580;29;20235;-88
2021/09/01 06:20:19;;;;;;;5.93;5.33;;;;;;;18.10;54.95;99872.31;4884379;29;20234;-82
2021/09/01 06:22:46;;;;;;;6.03;5.43;;;;;;;18.09;54.98;99887.75;4885014;29;20311;-83
2021/09/01 06:25:13;;;;;;;6.80;5.43;;;;;;;18.28;55.01;99896.25;4869893;29;20538;-88
2021/09/01 06:27:40;;;;;;;6.30;5.20;;;;;;;18.32;54.59;99881.91;4897229;29;20542;-80
2021/09/01 06:30:07;;;;;;;5.53;5.03;;;;;;;18.10;54.88;99883.97;4881694;29;20298;-89
2021/09/01 06:32:34;;;;;;;5.80;5.27;;;;;;;18.36;54.41;99910.13;4851205;29;20866;-89
2021/09/01 06:35:01;;;;;;;6.10;5.00;;;;;;;18.35;54.34;99913.09;4866272;29;20288;-86
2021/09/01 06:37:28;;;;;;;6.80;5.50;;;;;;;18.41;54.47;99903.91;4866344;29;20240;-86
2021/09/01 06:39:55;;;;;;;6.10;5.50;;;;;;;18.34;54.82;99919.59;4858408;29;20231;-88
2021/09/01 06:42:22;;;;;;;5.70;5.10;;;;;;;18.55;54.23;99912.41;4894966;29;20322;-88
2021/09/01 06:44:48;;;;;;;6.80;5.20;;;;;;;18.24;54.58;99920.38;4887623;29;20705;-87
2021/09/01 06:47:15;;;;;;;5.50;5.00;;;;;;;18.01;54.52;99926.16;4874680;29;20941;-88
2021/09/01 06:49:42;;;;;;;5.87;5.30;;;;;;;18.26;53.86;99912.78;4850703;29;20234;-87
2021/09/01 06:52:09;;;;;;;5.33;4.83;;;;;;;18.38;54.16;99940.50;4865566;29;20258;-85
2021/09/01 06:54:36;;;;;;;5.27;4.77;;;;;;;18.28;53.93;99928.81;4882648;29;20251;-89
2021/09/01 06:57:03;;;;;;;6.67;5.10;;;;;;;18.23;54.38;99940.44;4884320;29;20231;-83
2021/09/01 06:59:30;;;;;;;8.40;5.50;;;;;;;18.20;53.88;99940.94;4868557;29;20597;-87
2021/09/01 07:01:57;;;;;;;5.37;4.87;;;;;;;18.26;54.05;99933.66;4884330;29;20265;-87
2021/09/01 07:04:24;;;;;;;5.23;4.73;;;;;;;18.54;53.34;99933.31;4898989;29;20314;-85
2021/09/01 07:06:50;;;;;;;5.13;4.63;;;;;;;19.04;52.14;99940.81;4868655;29;20695;-81
2021/09/01 07:09:17;;;;;;;5.90;5.07;;;;;;;19.26;52.34;99941.44;4899511;29;20588;-87
2021/09/01 07:11:44;;;;;;;5.43;4.93;;;;;;;19.40;51.20;99943.63;4898210;29;20583;-89
2021/09/01 07:14:11;;;;;;;5.40;4.90;;;;;;;19.41;50.39;99950.69;4880571;29;20260;-89
2021/09/01 07:16:37;;;;;;;5.10;4.53;;;;;;;19.55;50.07;99952.63;4880137;29;20235;-86
2021/09/01 07:19:05;;;;;;;5.27;4.77;;;;;;;19.54;50.12;99958.34;4850152;29;20247;-89
2021/09/01 07:21:31;;;;;;;5.00;4.50;;;;;;;19.41;49.67;99964.28;4880419;29;20319;-84
2021/09/01 07:24:00;;;;;;;6.10;4.77;;;;;;;19.64;49.41;99953.72;4849852;29;20239;-86
2021/09/01 07:26:27;;;;;;;5.50;4.50;;;;;;;19.70;48.60;99968.13;4849875;29;20258;-86
2021/09/01 07:28:53;;;;;;;6.17;5.03;;;;;;;19.45;49.48;99968.13;4865024;29;20327;-87
2021/09/01 07:31:21;;;;;;;5.53;4.90;;;;;;;19.30;50.14;99963.44;4880460;29;20357;-88
2021/09/01 07:33:49;;;;;;;5.30;4.63;;;;;;;19.40;50.37;99971.63;4840801;29;20242;-82
2021/09/01 07:36:15;;;;;;;5.47;4.73;;;;;;;19.73;49.30;99973.88;4878858;29;20262;-87
2021/09/01 07:38:42;;;;;;;7.47;4.90;;;;;;;19.39;49.81;99967.25;4880009;29;20235;-87
2021/09/01 07:41:09;;;;;;;5.03;4.33;;;;;;;19.47;49.16;99965.94;4880374;29;20243;-83
2021/09/01 07:43:40;;;;;;;5.73;4.70;;;;;;;19.43;49.12;99970.25;4880239;29;20250;-87
2021/09/01 07:46:08;;;;;;;5.87;4.73;;;;;;;19.48;49.44;99984.69;4882491;29;20290;-89
2021/09/01 07:48:35;;;;;;;5.80;4.57;;;;;;;19.49;49.86;99982.78;4883822;29;20310;-86
2021/09/01 07:51:02;;;;;;;5.07;4.57;;;;;;;19.24;50.00;99991.66;4898668;29;20257;-82
2021/09/01 07:53:29;;;;;;;6.53;4.67;;;;;;;19.28;49.71;99990.03;4899145;29;20267;-86
2021/09/01 07:55:56;;;;;;;5.27;4.47;;;;;;;19.50;49.63;99998.84;4898950;29;20234;-85
2021/09/01 07:58:23;;;;;;;5.17;4.67;;;;;;;19.40;49.57;99984.38;4898491;29;20235;-82
2021/09/01 08:00:50;;;;;;;5.73;5.03;;;;;;;19.50;49.41;99977.09;4898658;29;20580;-87
2021/09/01 08:03:17;;;;;;;4.30;3.90;;;;;;;19.72;49.41;99996.69;4883304;29;20257;-88
2021/09/01 08:05:45;;;;;;;5.50;5.00;;;;;;;19.72;49.27;99993.16;4883265;29;20246;-87
2021/09/01 08:08:11;;;;;;;5.93;4.80;;;;;;;19.63;49.31;99994.78;4898835;29;20301;-88
2021/09/01 08:10:38;;;;;;;4.97;4.47;;;;;;;20.08;48.06;99993.97;4898867;29;20235;-86
2021/09/01 08:13:05;;;;;;;5.07;4.57;;;;;;;19.87;48.77;99984.19;4882773;29;20318;-84
2021/09/01 08:15:32;;;;;;;5.47;4.97;;;;;;;19.83;48.96;99999.41;4895225;29;20610;-84
2021/09/01 08:17:59;;;;;;;5.50;4.53;;;;;;;20.06;48.81;99998.88;4887395;29;20242;-86
2021/09/01 08:20:26;;;;;;;5.00;4.40;;;;;;;20.01;48.46;100001.59;4867684;29;20698;-87
2021/09/01 08:22:52;;;;;;;5.47;4.37;;;;;;;19.73;49.43;99992.06;4914334;29;20243;-88
2021/09/01 08:25:19;;;;;;;6.00;4.63;;;;;;;19.78;49.90;100005.66;4898720;29;20291;-85
2021/09/01 08:27:47;;;;;;;6.23;5.20;;;;;;;19.99;49.51;100012.72;4915768;29;20235;-86
2021/09/01 08:30:14;;;;;;;5.50;4.97;;;;;;;19.99;49.74;99999.13;4901952;29;20230;-84
2021/09/01 08:32:41;;;;;;;5.13;4.67;;;;;;;20.45;47.82;100012.72;4886894;29;20235;-86
2021/09/01 08:35:08;;;;;;;5.73;4.50;;;;;;;20.66;46.96;100017.03;4902347;29;20658;-88
2021/09/01 08:37:35;;;;;;;6.30;4.73;;;;;;;20.64;47.15;100006.41;4902449;29;20323;-87
2021/09/01 08:40:05;;;;;;;5.37;4.63;;;;;;;20.67;47.13;100009.69;4886351;29;20235;-89
2021/09/01 08:42:32;;;;;;;5.37;4.50;;;;;;;20.61;46.67;100015.16;4885798;29;20258;-86
2021/09/01 08:44:58;;;;;;;4.97;4.50;;;;;;;20.60;47.23;100005.34;4885118;29;20315;-85
2021/09/01 08:47:26;;;;;;;5.77;4.57;;;;;;;20.69;47.41;100008.31;4898942;29;20254;-88
2021/09/01 08:49:53;;;;;;;5.13;4.57;;;;;;;20.85;47.57;100004.47;4885456;29;20234;-86
2021/09/01 08:52:21;;;;;;;5.97;5.20;;;;;;;20.63;47.62;100017.56;4900584;29;20732;-84
2021/09/01 08:54:48;;;;;;;5.27;4.77;;;;;;;20.67;48.03;100026.81;4900790;29;20230;-84
2021/09/01 08:57:15;;;;;;;5.43;4.40;;;;;;;20.93;47.33;100017.50;4886216;29;20234;-86
2021/09/01 08:59:42;;;;;;;5.10;4.60;;;;;;;21.13;47.32;100016.63;4886394;29;20298;-82
2021/09/01 09:02:08;;;;;;;6.37;4.63;;;;;;;21.09;47.19;100024.50;4885516;29;20346;-88
2021/09/01 09:04:38;;;;;;;5.77;4.90;;;;;;;20.83;47.50;100030.31;4901489;29;20232;-85
2021/09/01 09:07:07;;;;;;;5.43;4.83;;;;;;;21.14;47.85;100036.53;4901923;29;20295;-88
2021/09/01 09:09:38;;;;;;;5.93;4.97;;;;;;;21.01;48.52;100021.53;4902517;29;20299;-81
2021/09/01 09:12:07;;;;;;;5.30;4.57;;;;;;;21.16;46.99;100039.78;4901288;29;20242;-87
2021/09/01 09:14:38;;;;;;;5.30;4.33;;;;;;;21.07;47.64;100044.97;4885988;29;20632;-88
2021/09/01 09:17:09;;;;;;;5.07;4.50;;;;;;;21.26;47.57;100050.63;4870771;29;20283;-85
2021/09/01 09:19:48;;;;;;;6.00;4.80;;;;;;;21.60;46.58;100057.00;4901410;29;20269;-85
2021/09/01 09:22:25;;;;;;;5.20;4.70;;;;;;;21.66;46.27;100049.59;4901105;29;20230;-88
2021/09/01 09:25:18;;;;;;;5.30;4.67;;;;;;;21.59;46.08;100039.00;4885823;29;20286;-84
2021/09/01 09:27:45;;;;;;;6.90;4.60;;;;;;;21.79;45.19;100038.06;4870733;29;20235;-86
2021/09/01 09:30:21;;;;;;;7.30;4.50;;;;;;;22.00;45.06;100030.56;4916738;29;20232;-86
2021/09/01 09:33:14;;;;;;;7.07;5.00;;;;;;;21.64;45.70;100043.63;4902347;29;20230;-88
2021/09/01 09:36:00;;;;;;;6.03;4.97;;;;;;;20.97;46.07;100036.81;4901222;29;20227;-85
2021/09/01 09:38:41;;;;;;;5.50;4.33;;;;;;;21.00;46.87;100042.50;4869938;29;20234;-89
2021/09/01 09:41:22;;;;;;;5.33;4.83;;;;;;;21.42;46.23;100039.34;4901303;29;20269;-86
2021/09/01 09:43:51;;;;;;;4.93;4.53;;;;;;;21.58;46.13;100029.19;4885745;29;20238;-84
2021/09/01 09:46:17;;;;;;;5.87;4.60;;;;;;;21.74;45.98;100030.72;4881968;29;20240;-84
2021/09/01 09:48:46;;;;;;;5.40;4.70;;;;;;;21.88;45.75;100028.97;4866867;29;20645;-85
2021/09/01 09:51:15;;;;;;;5.63;4.27;;;;;;;21.93;45.59;100026.25;4882249;29;20242;-89
2021/09/01 09:53:47;;;;;;;6.63;4.60;;;;;;;21.50;46.25;100008.00;4896175;29;20240;-85
2021/09/01 09:56:29;;;;;;;5.53;4.53;;;;;;;22.20;45.50;100030.41;4900403;29;20629;-85
2021/09/01 09:58:57;;;;;;;5.40;4.90;;;;;;;22.29;45.33;100024.03;4900870;29;20286;-85
2021/09/01 10:01:25;;;;;;;5.10;4.60;;;;;;;22.45;45.50;100015.69;4885382;29;20735;-85
2021/09/01 10:03:55;;;;;;;5.00;4.60;;;;;;;22.53;44.53;100024.09;4900278;29;20235;-86
2021/09/01 10:06:21;;;;;;;4.40;4.03;;;;;;;22.59;44.11;100022.91;4884751;29;20235;-87
2021/09/01 10:08:50;;;;;;;6.50;4.60;;;;;;;22.33;44.37;100044.19;4900547;29;20227;-85
2021/09/01 10:11:19;;;;;;;6.03;4.20;;;;;;;22.32;44.83;100030.84;4900602;29;20236;-87
2021/09/01 10:13:48;;;;;;;5.47;4.70;;;;;;;22.80;44.62;100039.94;4900663;29;20717;-86
2021/09/01 10:16:21;;;;;;;5.50;4.33;;;;;;;22.82;44.16;100038.53;4850493;29;20647;-84
2021/09/01 10:19:03;;;;;;;4.50;4.10;;;;;;;22.80;43.98;100043.50;4868631;29;20236;-85
2021/09/01 10:21:32;;;;;;;5.00;4.43;;;;;;;22.27;44.29;100037.16;4884457;29;20535;-84
2021/09/01 10:24:35;;;;;;;6.50;4.70;;;;;;;22.03;44.58;100002.69;4869159;29;20258;-86
2021/09/01 10:27:17;;;;;;;5.47;4.50;;;;;;;22.76;44.93;100034.25;4900560;29;20238;-86
2021/09/01 10:29:47;;;;;;;5.30;3.80;;;;;;;22.85;42.72;100030.88;4884640;29;20653;-86
2021/09/01 10:32:15;;;;;;;5.00;4.50;;;;;;;23.02;41.56;100023.81;4882975;29;20237;-84
2021/09/01 10:34:42;;;;;;;4.90;4.50;;;;;;;23.26;42.82;100023.81;4890911;29;20228;-85
2021/09/01 10:37:09;;;;;;;4.60;4.20;;;;;;;23.38;42.45;100026.91;4893124;29;20312;-85
2021/09/01 10:39:38;;;;;;;5.77;4.03;;;;;;;23.46;40.38;100031.78;4877947;29;20225;-86
2021/09/01 10:42:31;;;;;;;4.50;4.07;;;;;;;23.76;40.79;100033.22;4863902;29;20375;-82
2021/09/01 10:44:58;;;;;;;4.53;3.93;;;;;;;23.82;41.10;100033.97;4872864;29;20333;-84
2021/09/01 10:47:25;;;;;;;4.63;4.10;;;;;;;24.44;39.65;100035.44;4886665;29;20287;-83
2021/09/01 10:49:55;;;;;;;4.47;4.07;;;;;;;24.42;40.58;100035.72;4895288;29;20306;-85
2021/09/01 10:52:22;;;;;;;5.47;4.43;;;;;;;24.35;40.34;100029.84;4887548;29;20320;-86
2021/09/01 10:54:49;;;;;;;5.13;4.27;;;;;;;24.43;40.13;100025.59;4877502;29;20289;-84
2021/09/01 10:57:29;;;;;;;4.77;4.20;;;;;;;23.87;41.11;100051.13;4892521;29;20272;-84
2021/09/01 10:59:58;;;;;;;4.70;4.20;;;;;;;23.95;40.91;100039.50;4876162;29;20597;-83
2021/09/01 11:02:25;;;;;;;4.80;4.00;;;;;;;23.46;41.36;100036.41;4873790;29;20235;-86
2021/09/01 11:04:54;;;;;;;5.00;4.40;;;;;;;22.90;43.04;100026.16;4871457;29;20230;-85
2021/09/01 11:07:26;;;;;;;5.23;4.10;;;;;;;23.09;43.17;100040.69;4889796;29;20229;-84
2021/09/01 11:09:58;;;;;;;4.60;4.20;;;;;;;23.13;42.87;100022.59;4874667;29;20505;-86
2021/09/01 11:12:27;;;;;;;4.40;4.00;;;;;;;23.50;41.30;100027.34;4898997;29;20261;-86
2021/09/01 11:14:55;;;;;;;5.20;4.03;;;;;;;23.72;42.13;100040.41;4899475;29;20288;-87
2021/09/01 11:17:24;;;;;;;7.93;3.80;;;;;;;23.65;41.50;100032.59;4899223;29;20332;-86
2021/09/01 11:19:53;;;;;;;4.83;4.03;;;;;;;23.78;41.37;100038.41;4900271;29;20297;-86
2021/09/01 11:22:24;;;;;;;4.27;3.87;;;;;;;24.21;40.28;100026.25;4898579;29;20271;-85
2021/09/01 11:25:00;;;;;;;4.97;4.17;;;;;;;23.87;40.75;100023.75;4868369;29;20246;-83
2021/09/01 11:27:29;;;;;;;5.10;4.37;;;;;;;23.74;41.63;100035.47;4868535;29;20238;-86
2021/09/01 11:30:05;;;;;;;4.57;4.13;;;;;;;23.49;41.85;100017.50;4868458;29;20241;-85
2021/09/01 11:32:34;;;;;;;4.00;3.60;;;;;;;22.85;42.46;100012.56;4883420;29;20229;-81
2021/09/01 11:35:03;;;;;;;5.80;4.10;;;;;;;22.84;43.29;100013.66;4900231;29;20232;-86
2021/09/01 11:37:31;;;;;;;5.07;4.00;;;;;;;23.05;43.37;100004.09;4898166;29;20243;-87
2021/09/01 11:39:58;;;;;;;5.07;3.87;;;;;;;23.22;43.48;100003.63;4883626;29;20244;-83
2021/09/01 11:42:33;;;;;;;6.43;4.23;;;;;;;23.83;41.29;100009.06;4883677;29;20233;-87
2021/09/01 11:45:05;;;;;;;4.00;3.60;;;;;;;23.89;41.23;100004.31;4873334;29;20240;-87